Saint Francis, Wisconsin
Current Conditions -  °F | °C
As of 5:52 PM on Friday 21 Nov 2014 (Local Time) from KMKE Reporting Station
Few Clouds Few Clouds  
Wind Chill: 21°   Ceiling: Unl
Heat Index: 28°   Visibility: 10mi
Dew Point:   Wind: 7mph
Humidity: 34%   Direction: 180°S
Pressure: 30.26"   Gusts: NA
Location:  42.97°N, 87.88°W
Report Text: KMKE 212352Z 18006KT 10SM FEW250 M02/M16 A3026 RMK AO2 SLP262 T10221161 10000 21028 58014
Loading
Personal Weather Stations






























Interactive Weather Map New forecast layout! Learn more

10-Day Weather Forecast

Advertisements
Track Severe Weather on mobile